createdAt,value
2022-08-02T00:00:35.420Z,71.50
2022-08-02T00:03:02.452Z,71.60
2022-08-02T00:05:29.594Z,71.50
2022-08-02T00:07:56.818Z,71.60
2022-08-02T00:10:24.375Z,71.40
2022-08-02T00:12:51.852Z,71.60
2022-08-02T00:15:22.907Z,71.60
2022-08-02T00:17:50.495Z,71.70
2022-08-02T00:20:17.768Z,71.90
2022-08-02T00:22:44.907Z,71.70
2022-08-02T00:25:12.068Z,71.70
2022-08-02T00:27:39.275Z,71.80
2022-08-02T00:30:07.056Z,71.90
2022-08-02T00:32:34.210Z,72.00
2022-08-02T00:35:01.521Z,72.10
2022-08-02T00:37:28.751Z,72.20
2022-08-02T00:39:57.554Z,72.10
2022-08-02T00:42:25.079Z,72.30
2022-08-02T00:44:52.344Z,72.30
2022-08-02T00:47:20.074Z,72.30
2022-08-02T00:50:06.655Z,72.40
2022-08-02T00:52:33.821Z,72.80
2022-08-02T00:55:00.999Z,72.50
2022-08-02T00:57:29.150Z,72.50
2022-08-02T00:59:56.058Z,72.80
2022-08-02T01:02:23.081Z,72.80
2022-08-02T01:04:50.107Z,72.90
2022-08-02T01:07:17.390Z,72.90
2022-08-02T01:09:46.257Z,72.90
2022-08-02T01:12:14.597Z,73.00
2022-08-02T01:14:48.656Z,73.10
2022-08-02T01:17:48.602Z,73.50
2022-08-02T01:20:46.966Z,73.30
2022-08-02T01:23:29.413Z,73.10
2022-08-02T01:26:32.524Z,73.30
2022-08-02T01:29:10.859Z,73.60
2022-08-02T01:31:47.561Z,73.70
2022-08-02T01:34:36.117Z,73.60
2022-08-02T01:37:27.437Z,73.60
2022-08-02T01:40:09.574Z,73.90
2022-08-02T01:42:40.342Z,73.40
2022-08-02T01:45:09.354Z,73.80
2022-08-02T01:47:41.556Z,73.80
2022-08-02T01:50:13.898Z,73.90
2022-08-02T01:52:53.573Z,74.00
2022-08-02T01:55:33.642Z,73.90
2022-08-02T01:58:18.182Z,74.10
2022-08-02T02:00:47.448Z,74.00
2022-08-02T02:03:19.507Z,74.10
2022-08-02T02:05:52.302Z,74.10
2022-08-02T02:08:32.236Z,74.30
2022-08-02T02:12:09.429Z,74.30
2022-08-02T02:13:50.319Z,74.20
2022-08-02T02:16:19.427Z,74.30
2022-08-02T02:18:49.112Z,74.20
2022-08-02T02:21:16.860Z,74.30
2022-08-02T02:23:44.250Z,74.30
2022-08-02T02:26:15.213Z,74.40
2022-08-02T02:28:47.663Z,74.60
2022-08-02T02:31:19.357Z,74.70
2022-08-02T02:33:54.987Z,74.80
2022-08-02T02:36:23.679Z,75.00
2022-08-02T02:38:53.231Z,74.80
2022-08-02T02:41:23.732Z,74.70
2022-08-02T02:43:50.788Z,74.80
2022-08-02T02:46:21.626Z,74.40
2022-08-02T02:48:51.687Z,74.80
2022-08-02T02:51:20.021Z,74.90
2022-08-02T02:54:32.903Z,74.80
2022-08-02T02:56:42.644Z,75.00
2022-08-02T02:59:13.112Z,75.20
2022-08-02T03:01:57.243Z,75.00
2022-08-02T03:04:27.228Z,75.10
2022-08-02T03:07:03.591Z,75.10
2022-08-02T03:09:30.871Z,75.00
2022-08-02T03:11:58.225Z,75.20
2022-08-02T03:14:25.629Z,75.20
2022-08-02T03:16:55.427Z,75.10
2022-08-02T03:19:23.742Z,75.30
2022-08-02T03:22:00.668Z,75.20
2022-08-02T03:24:28.529Z,75.20
2022-08-02T03:26:56.311Z,75.20
2022-08-02T03:29:23.678Z,75.30
2022-08-02T03:31:51.272Z,75.20
2022-08-02T03:34:18.863Z,75.40
2022-08-02T03:36:51.622Z,75.40
2022-08-02T03:39:20.941Z,75.50
2022-08-02T03:41:49.545Z,75.60
2022-08-02T03:44:18.404Z,75.50
2022-08-02T03:46:45.960Z,75.60
2022-08-02T03:49:16.752Z,75.60
2022-08-02T03:51:45.633Z,75.70
2022-08-02T03:54:13.476Z,75.60
2022-08-02T03:56:40.799Z,75.60
2022-08-02T03:59:10.056Z,75.80
2022-08-02T04:01:37.432Z,75.90
2022-08-02T04:04:05.336Z,75.80
2022-08-02T04:06:32.867Z,75.90
2022-08-02T04:08:59.974Z,75.80
2022-08-02T04:11:33.211Z,75.90
2022-08-02T04:14:07.466Z,75.90
2022-08-02T04:16:50.626Z,76.00
2022-08-02T04:19:29.238Z,76.20
2022-08-02T04:21:58.044Z,76.10
2022-08-02T04:24:34.446Z,76.10
2022-08-02T04:27:19.167Z,76.20
2022-08-02T04:29:49.679Z,76.20
2022-08-02T04:32:18.203Z,76.20
2022-08-02T04:35:11.160Z,76.20
2022-08-02T04:37:35.096Z,76.20
2022-08-02T04:40:02.556Z,76.30
2022-08-02T04:42:29.626Z,76.20
2022-08-02T04:44:58.081Z,76.30
2022-08-02T04:47:54.318Z,76.40
2022-08-02T04:50:12.483Z,76.50
2022-08-02T04:52:44.000Z,76.50
2022-08-02T04:55:12.803Z,76.50
2022-08-02T04:57:54.853Z,77.00
2022-08-02T05:00:22.491Z,76.60
2022-08-02T05:02:49.967Z,76.40
2022-08-02T05:05:17.080Z,76.50
2022-08-02T05:07:44.556Z,76.60
2022-08-02T05:10:11.704Z,76.60
2022-08-02T05:12:39.753Z,76.50
2022-08-02T05:15:09.233Z,76.60
2022-08-02T05:17:47.805Z,76.60
2022-08-02T05:20:19.168Z,77.20
2022-08-02T05:22:47.105Z,76.60
2022-08-02T05:25:14.820Z,76.60
2022-08-02T05:27:42.145Z,76.70
2022-08-02T05:30:11.147Z,76.50
2022-08-02T05:32:46.224Z,76.50
2022-08-02T05:35:13.473Z,76.50
2022-08-02T05:37:42.175Z,76.70
2022-08-02T05:40:12.887Z,76.60
2022-08-02T05:42:41.278Z,76.60
2022-08-02T05:45:09.388Z,76.80
2022-08-02T05:47:37.457Z,76.90
2022-08-02T05:50:07.937Z,77.00
2022-08-02T05:53:04.704Z,77.00
2022-08-02T05:55:40.124Z,76.40
2022-08-02T05:58:17.039Z,77.10
2022-08-02T06:00:45.664Z,77.00
2022-08-02T06:03:25.969Z,76.90
2022-08-02T06:06:26.041Z,76.90
2022-08-02T06:09:02.504Z,76.20
2022-08-02T06:12:01.524Z,76.60
2022-08-02T06:14:34.016Z,76.40
2022-08-02T06:17:05.263Z,76.90
2022-08-02T06:19:36.580Z,77.00
2022-08-02T06:22:32.907Z,77.00
2022-08-02T06:25:05.610Z,77.00
2022-08-02T06:27:34.478Z,77.20
2022-08-02T06:30:02.653Z,77.20
2022-08-02T06:32:30.232Z,77.30
2022-08-02T06:34:57.219Z,77.50
2022-08-02T06:37:31.289Z,77.40
2022-08-02T06:40:32.369Z,77.60
2022-08-02T06:43:23.306Z,80.00
2022-08-02T06:45:50.701Z,80.40
2022-08-02T06:48:18.007Z,81.10
2022-08-02T06:50:45.090Z,82.00
2022-08-02T06:53:13.077Z,82.30
2022-08-02T06:55:43.997Z,82.70
2022-08-02T06:58:13.061Z,83.00
2022-08-02T07:00:42.313Z,83.40
2022-08-02T07:03:09.605Z,83.20
2022-08-02T07:05:37.002Z,83.20
2022-08-02T07:08:04.597Z,83.50
2022-08-02T07:10:31.994Z,83.50
2022-08-02T07:13:00.052Z,83.60
2022-08-02T07:15:27.361Z,83.70
2022-08-02T07:17:54.528Z,83.60
2022-08-02T07:20:21.514Z,83.80
2022-08-02T07:22:48.815Z,83.80
2022-08-02T07:25:16.507Z,84.20
2022-08-02T07:27:43.758Z,84.30
2022-08-02T07:30:11.491Z,84.10
2022-08-02T07:32:39.260Z,84.00
2022-08-02T07:35:07.699Z,83.90
2022-08-02T07:37:55.449Z,84.50
2022-08-02T07:40:24.952Z,83.80
2022-08-02T07:42:57.753Z,83.90
2022-08-02T07:45:27.999Z,84.00
2022-08-02T07:47:56.914Z,84.00
2022-08-02T07:50:24.488Z,84.20
2022-08-02T07:52:57.084Z,84.40
2022-08-02T07:55:38.997Z,84.40
2022-08-02T07:58:13.434Z,84.20
2022-08-02T08:00:42.732Z,84.00
2022-08-02T08:03:09.804Z,84.20
2022-08-02T08:05:37.105Z,84.30
2022-08-02T08:08:06.137Z,84.50
2022-08-02T08:10:33.516Z,84.90
2022-08-02T08:13:00.625Z,85.20
2022-08-02T08:15:27.685Z,85.60
2022-08-02T08:17:54.794Z,85.60
2022-08-02T08:20:21.915Z,85.90
2022-08-02T08:22:50.239Z,86.70
2022-08-02T08:25:17.343Z,85.60
2022-08-02T08:27:52.151Z,85.80
2022-08-02T08:30:21.158Z,85.40
2022-08-02T08:32:48.385Z,85.80
2022-08-02T08:35:16.026Z,85.90
2022-08-02T08:37:43.199Z,86.00
2022-08-02T08:40:12.408Z,86.00
2022-08-02T08:42:40.896Z,86.00
2022-08-02T08:45:09.136Z,86.10
2022-08-02T08:47:42.967Z,86.40
2022-08-02T08:50:24.568Z,85.60
2022-08-02T08:53:03.857Z,86.20
2022-08-02T08:55:32.187Z,85.80
2022-08-02T08:58:00.623Z,86.60
2022-08-02T09:00:29.737Z,87.00
2022-08-02T09:02:57.118Z,87.50
2022-08-02T09:05:25.264Z,87.70
2022-08-02T09:07:53.541Z,88.40
2022-08-02T09:10:46.193Z,87.50
2022-08-02T09:13:38.775Z,87.50
2022-08-02T09:16:12.157Z,87.80
2022-08-02T09:18:46.344Z,88.00
2022-08-02T09:21:15.774Z,88.50
2022-08-02T09:23:44.525Z,88.80
2022-08-02T09:26:14.943Z,89.30
2022-08-02T09:28:44.118Z,89.60
2022-08-02T09:31:12.282Z,90.00
2022-08-02T09:33:41.283Z,90.00
2022-08-02T09:36:15.244Z,90.00
2022-08-02T09:39:07.809Z,90.10
2022-08-02T09:41:40.816Z,90.50
2022-08-02T09:44:16.065Z,90.30
2022-08-02T09:46:45.194Z,90.30
2022-08-02T09:49:16.856Z,90.30
2022-08-02T09:51:47.156Z,90.50
2022-08-02T09:54:19.755Z,90.30
2022-08-02T09:56:48.322Z,90.10
2022-08-02T09:59:16.833Z,89.60
2022-08-02T10:01:50.897Z,89.50
2022-08-02T10:04:29.923Z,89.80
2022-08-02T10:06:59.653Z,89.90
2022-08-02T10:09:29.119Z,87.50
2022-08-02T10:11:57.069Z,86.30
2022-08-02T10:14:24.411Z,85.90
2022-08-02T10:16:54.638Z,86.10
2022-08-02T10:20:00.718Z,86.90
2022-08-02T10:22:20.565Z,87.20
2022-08-02T10:24:50.516Z,87.20
2022-08-02T10:27:23.153Z,87.30
2022-08-02T10:29:53.988Z,87.20
2022-08-02T10:32:40.229Z,86.80
2022-08-02T10:35:18.562Z,87.00
2022-08-02T10:37:51.043Z,87.10
2022-08-02T10:40:24.497Z,86.60
2022-08-02T10:42:53.637Z,86.40
2022-08-02T10:45:22.419Z,86.00
2022-08-02T10:48:12.236Z,86.00
2022-08-02T10:50:48.489Z,87.00
2022-08-02T10:53:28.922Z,86.40
2022-08-02T10:55:57.310Z,87.10
2022-08-02T10:58:29.722Z,86.60
2022-08-02T11:00:58.094Z,85.70
2022-08-02T11:03:28.315Z,85.70
2022-08-02T11:06:25.957Z,85.80
2022-08-02T11:09:33.202Z,85.60
2022-08-02T11:12:12.220Z,85.70
2022-08-02T11:14:47.015Z,84.70
2022-08-02T11:17:18.719Z,84.10
2022-08-02T11:20:10.596Z,84.10
2022-08-02T11:22:38.269Z,83.80
2022-08-02T11:25:23.910Z,83.60
2022-08-02T11:27:56.756Z,83.60
2022-08-02T11:30:26.403Z,83.60
2022-08-02T11:32:57.696Z,83.40
2022-08-02T11:35:39.237Z,83.40
2022-08-02T11:38:21.281Z,83.30
2022-08-02T11:40:49.431Z,82.80
2022-08-02T11:43:21.234Z,82.60
2022-08-02T11:45:51.075Z,82.50
2022-08-02T11:48:38.726Z,82.60
2022-08-02T11:51:14.346Z,83.50
2022-08-02T11:53:51.046Z,83.00
2022-08-02T11:56:29.565Z,83.00
2022-08-02T11:59:05.679Z,80.00
2022-08-02T12:01:36.693Z,79.50
2022-08-02T12:04:15.715Z,79.50
2022-08-02T12:06:44.715Z,79.00
2022-08-02T12:09:18.755Z,78.70
2022-08-02T12:11:50.379Z,77.20
2022-08-02T12:14:18.209Z,78.30
2022-08-02T12:17:04.467Z,77.40
2022-08-02T12:19:31.746Z,76.70
2022-08-02T12:22:10.827Z,76.30
2022-08-02T12:24:40.305Z,75.90
2022-08-02T12:27:07.992Z,76.40
2022-08-02T12:29:57.917Z,76.20
2022-08-02T12:32:25.288Z,76.20
2022-08-02T12:35:10.206Z,76.30
2022-08-02T12:37:43.038Z,75.90
2022-08-02T12:40:27.097Z,75.90
2022-08-02T12:43:06.430Z,75.50
2022-08-02T12:45:55.157Z,75.40
2022-08-02T12:48:56.534Z,75.50
2022-08-02T12:51:54.783Z,75.90
2022-08-02T12:54:30.986Z,75.50
2022-08-02T12:57:13.869Z,76.00
2022-08-02T12:59:56.043Z,73.40
2022-08-02T13:02:25.675Z,74.90
2022-08-02T13:04:52.791Z,73.90
2022-08-02T13:07:19.932Z,73.30
2022-08-02T13:09:50.175Z,71.90
2022-08-02T13:12:17.820Z,70.90
2022-08-02T13:14:45.015Z,70.40
2022-08-02T13:17:12.143Z,70.60
2022-08-02T13:19:42.285Z,69.50
2022-08-02T13:22:10.649Z,68.60
2022-08-02T13:24:55.308Z,67.30
2022-08-02T13:27:25.213Z,66.50
2022-08-02T13:29:53.493Z,66.30
2022-08-02T13:32:21.040Z,66.00
2022-08-02T13:34:49.185Z,65.60
2022-08-02T13:37:16.499Z,65.60
2022-08-02T13:40:00.170Z,65.90
2022-08-02T13:42:33.348Z,66.10
2022-08-02T13:45:00.480Z,66.70
2022-08-02T13:48:03.590Z,66.40
2022-08-02T13:50:31.717Z,65.90
2022-08-02T13:52:58.876Z,65.90
2022-08-02T13:55:26.215Z,65.90
2022-08-02T13:57:54.562Z,66.20
2022-08-02T14:00:34.667Z,66.30
2022-08-02T14:03:04.888Z,66.60
2022-08-02T14:05:39.340Z,66.90
2022-08-02T14:08:20.756Z,66.90
2022-08-02T14:10:49.344Z,67.30
2022-08-02T14:13:16.904Z,67.60
2022-08-02T14:16:15.379Z,67.60
2022-08-02T14:18:46.694Z,68.30
2022-08-02T14:21:13.891Z,68.30
2022-08-02T14:23:46.872Z,68.40
2022-08-02T14:26:27.536Z,68.50
2022-08-02T14:28:55.945Z,68.70
2022-08-02T14:31:23.109Z,68.90
2022-08-02T14:33:50.284Z,69.10
2022-08-02T14:36:27.448Z,69.30
2022-08-02T14:38:56.407Z,69.40
2022-08-02T14:41:24.055Z,69.50
2022-08-02T14:44:06.183Z,69.60
2022-08-02T14:46:34.914Z,69.60
2022-08-02T14:49:03.661Z,69.80
2022-08-02T14:51:35.632Z,70.20
2022-08-02T14:54:08.618Z,70.40
2022-08-02T14:56:39.741Z,70.80
2022-08-02T14:59:07.166Z,70.40
2022-08-02T15:01:34.708Z,70.50
2022-08-02T15:04:15.523Z,70.50
2022-08-02T15:06:43.130Z,70.80
2022-08-02T15:09:10.390Z,70.80
2022-08-02T15:11:47.804Z,71.00
2022-08-02T15:14:25.301Z,71.10
2022-08-02T15:16:58.889Z,71.30
2022-08-02T15:19:56.647Z,71.50
2022-08-02T15:22:16.202Z,71.50
2022-08-02T15:24:45.245Z,71.70
2022-08-02T15:27:14.381Z,71.80
2022-08-02T15:29:46.249Z,71.60
2022-08-02T15:32:14.352Z,71.90
2022-08-02T15:34:42.055Z,72.10
2022-08-02T15:37:09.209Z,72.00
2022-08-02T15:39:36.961Z,72.10
2022-08-02T15:42:04.814Z,72.10
2022-08-02T15:44:32.107Z,72.00
2022-08-02T15:46:59.200Z,72.20
2022-08-02T15:49:26.730Z,72.10
2022-08-02T15:51:54.722Z,72.30
2022-08-02T15:54:21.891Z,72.30
2022-08-02T15:56:49.050Z,72.10
2022-08-02T15:59:19.521Z,72.00
2022-08-02T16:01:48.064Z,72.00
2022-08-02T16:04:16.317Z,71.90
2022-08-02T16:06:44.339Z,71.90
2022-08-02T16:09:12.015Z,71.90
2022-08-02T16:11:39.530Z,72.10
2022-08-02T16:14:07.058Z,72.20
2022-08-02T16:16:35.501Z,72.10
2022-08-02T16:19:47.850Z,72.30
2022-08-02T16:21:54.061Z,72.30
2022-08-02T16:24:21.614Z,72.10
2022-08-02T16:26:49.336Z,71.90
2022-08-02T16:29:19.039Z,72.10
2022-08-02T16:31:50.149Z,72.10
2022-08-02T16:34:17.969Z,72.10
2022-08-02T16:36:45.872Z,72.10
2022-08-02T16:39:13.347Z,71.90
2022-08-02T16:41:50.909Z,71.90
2022-08-02T16:44:29.051Z,72.10
2022-08-02T16:47:01.242Z,72.10
2022-08-02T16:50:07.151Z,72.20
2022-08-02T16:52:18.772Z,72.10
2022-08-02T16:54:49.446Z,72.20
2022-08-02T16:57:19.788Z,72.30
2022-08-02T16:59:58.176Z,72.50
2022-08-02T17:02:26.711Z,72.60
2022-08-02T17:04:55.386Z,72.60
2022-08-02T17:08:07.929Z,72.70
2022-08-02T17:10:10.032Z,72.80
2022-08-02T17:12:38.205Z,72.80
2022-08-02T17:16:16.541Z,72.80
2022-08-02T17:17:54.037Z,72.80
2022-08-02T17:20:21.249Z,72.80
2022-08-02T17:22:52.081Z,72.90
2022-08-02T17:25:19.696Z,73.10
2022-08-02T17:27:47.075Z,73.20
2022-08-02T17:30:26.738Z,73.30
2022-08-02T17:32:54.599Z,73.40
2022-08-02T17:35:40.035Z,73.40
2022-08-02T17:38:11.164Z,73.40
2022-08-02T17:40:45.113Z,73.50
2022-08-02T17:43:14.673Z,73.50
2022-08-02T17:46:00.957Z,73.00
2022-08-02T17:48:54.989Z,72.90
2022-08-02T17:52:16.003Z,72.90
2022-08-02T17:54:11.434Z,72.90
2022-08-02T17:59:30.723Z,72.90
2022-08-02T18:02:08.479Z,73.00
2022-08-02T18:04:37.922Z,73.30
2022-08-02T18:07:09.628Z,73.50
2022-08-02T18:09:43.347Z,73.60
2022-08-02T18:12:14.473Z,73.70
2022-08-02T18:14:46.027Z,74.00
2022-08-02T18:17:16.635Z,74.10
2022-08-02T18:19:55.478Z,74.40
2022-08-02T18:22:30.556Z,74.40
2022-08-02T18:24:57.696Z,74.80
2022-08-02T18:27:24.825Z,74.70
2022-08-02T18:30:00.299Z,74.60
2022-08-02T18:33:58.737Z,74.80
2022-08-02T18:35:19.988Z,74.90
2022-08-02T18:40:36.104Z,74.80
2022-08-02T18:43:03.610Z,75.00
2022-08-02T18:45:36.861Z,75.00
2022-08-02T18:48:22.348Z,74.90
2022-08-02T18:50:53.529Z,75.50
2022-08-02T18:53:39.034Z,75.30
2022-08-02T18:56:20.473Z,75.30
2022-08-02T18:58:53.157Z,75.50
2022-08-02T19:01:33.526Z,75.50
2022-08-02T19:04:04.771Z,75.60
2022-08-02T19:06:32.715Z,75.80
2022-08-02T19:09:12.842Z,75.80
2022-08-02T19:11:47.551Z,76.10
2022-08-02T19:14:27.311Z,75.90
2022-08-02T19:16:59.583Z,76.30
2022-08-02T19:19:29.078Z,76.30
2022-08-02T19:22:18.296Z,76.20
2022-08-02T19:24:50.323Z,76.20
2022-08-02T19:27:25.982Z,76.20
2022-08-02T19:30:07.475Z,76.90
2022-08-02T19:32:41.502Z,76.40
2022-08-02T19:35:29.702Z,76.10
2022-08-02T19:38:07.423Z,76.20
2022-08-02T19:40:34.664Z,76.40
2022-08-02T19:44:21.048Z,76.10
2022-08-02T19:45:50.936Z,76.00
2022-08-02T19:48:24.159Z,76.00
2022-08-02T19:51:00.670Z,76.00
2022-08-02T19:53:47.406Z,76.00
2022-08-02T19:56:20.516Z,75.90
2022-08-02T19:58:51.421Z,76.00
2022-08-02T20:01:23.487Z,75.90
2022-08-02T20:03:53.076Z,76.00
2022-08-02T20:06:29.976Z,75.90
2022-08-02T20:09:00.935Z,75.90
2022-08-02T20:14:16.505Z,75.90
2022-08-02T20:16:43.881Z,75.90
2022-08-02T20:19:13.982Z,76.00
2022-08-02T20:21:42.814Z,75.90
2022-08-02T20:24:13.666Z,75.60
2022-08-02T20:26:47.269Z,75.70
2022-08-02T20:29:17.495Z,75.80
2022-08-02T20:32:04.873Z,75.90
2022-08-02T20:34:33.648Z,76.10
2022-08-02T20:37:59.538Z,75.80
2022-08-02T20:39:51.916Z,75.70
2022-08-02T20:42:23.127Z,75.50
2022-08-02T20:44:54.693Z,75.60
2022-08-02T20:50:49.335Z,75.60
2022-08-02T20:53:23.593Z,75.90
2022-08-02T20:55:55.017Z,76.00
2022-08-02T20:58:27.299Z,76.40
2022-08-02T21:00:58.997Z,76.50
2022-08-02T21:03:38.887Z,76.60
2022-08-02T21:06:08.372Z,76.60
2022-08-02T21:08:35.510Z,76.40
2022-08-02T21:11:09.441Z,76.40
2022-08-02T21:13:47.282Z,77.10
2022-08-02T21:16:27.395Z,76.60
2022-08-02T21:19:00.180Z,76.60
2022-08-02T21:21:43.016Z,76.70
2022-08-02T21:24:12.324Z,76.60
2022-08-02T21:26:39.559Z,76.60
2022-08-02T21:29:07.435Z,76.70
2022-08-02T21:31:36.514Z,76.80
2022-08-02T21:34:07.539Z,76.80
2022-08-02T21:36:49.465Z,77.60
2022-08-02T21:39:17.978Z,76.60
2022-08-02T21:41:46.622Z,76.70
2022-08-02T21:44:21.812Z,76.80
2022-08-02T21:46:52.406Z,77.20
2022-08-02T21:49:20.496Z,76.90
2022-08-02T21:51:49.327Z,76.70
2022-08-02T21:54:21.319Z,76.80
2022-08-02T21:56:52.846Z,76.90
2022-08-02T21:59:25.349Z,76.90
2022-08-02T22:01:56.797Z,76.90
2022-08-02T22:04:47.698Z,76.90
2022-08-02T22:07:23.982Z,77.10
2022-08-02T22:09:52.768Z,77.10
2022-08-02T22:12:20.792Z,77.20
2022-08-02T22:14:55.085Z,77.10
2022-08-02T22:17:50.737Z,77.20
2022-08-02T22:20:18.342Z,77.10
2022-08-02T22:22:50.422Z,77.00
2022-08-02T22:25:27.185Z,77.30
2022-08-02T22:28:37.414Z,77.30
2022-08-02T22:30:54.803Z,77.50
2022-08-02T22:33:47.224Z,77.30
2022-08-02T22:36:28.601Z,77.30
2022-08-02T22:38:55.911Z,77.30
2022-08-02T22:41:23.133Z,77.50
2022-08-02T22:43:50.653Z,77.50
2022-08-02T22:46:18.013Z,77.50
2022-08-02T22:48:45.758Z,77.60
2022-08-02T22:51:14.003Z,77.80
2022-08-02T22:53:42.539Z,77.70
2022-08-02T22:56:10.308Z,77.60
2022-08-02T22:58:41.052Z,73.00
2022-08-02T22:58:56.233Z,75.50
2022-08-02T22:59:00.376Z,75.20
2022-08-02T22:59:07.950Z,76.00
2022-08-02T23:01:24.821Z,77.60
2022-08-02T23:03:51.937Z,77.60
2022-08-02T23:06:22.528Z,77.60
2022-08-02T23:08:50.242Z,77.80
2022-08-02T23:11:17.368Z,77.80
2022-08-02T23:13:45.521Z,78.00
2022-08-02T23:16:31.029Z,78.00
2022-08-02T23:19:16.896Z,78.00
2022-08-02T23:22:01.040Z,78.00
2022-08-02T23:24:33.284Z,78.10
2022-08-02T23:27:01.204Z,78.20
2022-08-02T23:29:28.310Z,78.10
2022-08-02T23:31:55.665Z,78.30
2022-08-02T23:34:22.872Z,78.40
2022-08-02T23:36:50.040Z,78.50
2022-08-02T23:39:17.226Z,78.60
2022-08-02T23:41:44.270Z,78.50
2022-08-02T23:44:14.416Z,78.60
2022-08-02T23:46:46.981Z,78.70
2022-08-02T23:49:14.703Z,78.50
2022-08-02T23:51:43.462Z,78.50
2022-08-02T23:54:11.714Z,78.60
2022-08-02T23:56:39.762Z,78.60
2022-08-02T23:59:10.643Z,78.70
